createdAt,value
2022-08-28T00:23:43.454Z,4.03
2022-08-28T00:26:31.885Z,3.75
2022-08-28T00:28:59.825Z,3.80
2022-08-28T00:31:26.737Z,3.40
2022-08-28T00:33:53.495Z,3.75
2022-08-28T00:36:50.976Z,3.83
2022-08-28T00:39:18.244Z,3.30
2022-08-28T00:41:45.627Z,3.45
2022-08-28T00:44:13.908Z,3.78
2022-08-28T00:46:45.825Z,3.35
2022-08-28T00:49:15.121Z,3.42
2022-08-28T00:55:53.399Z,3.30
2022-08-28T00:58:21.146Z,4.18
2022-08-28T01:38:17.596Z,2.75
2022-08-28T01:40:49.748Z,2.58
2022-08-28T01:43:19.805Z,2.90
2022-08-28T01:46:21.060Z,2.40
2022-08-28T01:48:51.275Z,2.90
2022-08-28T01:51:22.683Z,3.30
2022-08-28T02:42:26.516Z,2.65
2022-08-28T02:44:53.165Z,2.60
2022-08-28T02:47:19.839Z,2.62
2022-08-28T02:49:46.621Z,2.47
2022-08-28T02:52:13.267Z,2.45
2022-08-28T02:55:02.139Z,2.50
2022-08-28T05:27:00.163Z,3.00
2022-08-28T05:33:40.791Z,2.75
2022-08-28T05:36:12.285Z,2.95
2022-08-28T05:51:48.954Z,2.90
2022-08-28T05:54:16.719Z,2.60
2022-08-28T05:56:45.490Z,2.65
2022-08-28T05:59:14.302Z,2.75
2022-08-28T06:01:47.068Z,2.37
2022-08-28T06:04:58.776Z,2.50
2022-08-28T06:07:47.412Z,2.80
2022-08-28T06:10:13.992Z,3.25
2022-08-28T06:12:40.634Z,2.85
2022-08-28T06:15:07.982Z,2.65
2022-08-28T06:17:35.083Z,2.70
2022-08-28T06:20:02.249Z,2.80
2022-08-28T06:22:44.626Z,3.30
2022-08-28T06:25:14.410Z,3.58
2022-08-28T06:27:41.021Z,2.80
2022-08-28T06:30:08.925Z,2.80
2022-08-28T06:32:35.558Z,3.00
2022-08-28T06:35:02.367Z,2.60
2022-08-28T06:37:47.845Z,3.10
2022-08-28T06:41:02.280Z,2.78
2022-08-28T06:43:29.527Z,2.40
2022-08-28T06:45:57.881Z,3.20
2022-08-28T06:48:27.516Z,2.80
2022-08-28T06:50:55.993Z,2.62
2022-08-28T06:53:26.821Z,3.00
2022-08-28T06:56:26.369Z,2.70
2022-08-28T06:58:56.591Z,2.75
2022-08-28T07:01:35.576Z,2.45
2022-08-28T07:04:06.223Z,2.95
2022-08-28T07:06:35.777Z,2.90
2022-08-28T07:09:05.377Z,2.40
2022-08-28T07:12:21.947Z,3.17
2022-08-28T07:15:31.693Z,2.70
2022-08-28T07:17:58.278Z,2.70
2022-08-28T07:20:25.039Z,2.53
2022-08-28T07:22:54.065Z,2.40
2022-08-28T07:25:26.576Z,2.42
2022-08-28T07:27:53.260Z,2.70
2022-08-28T07:30:44.493Z,2.72
2022-08-28T07:33:11.252Z,2.70
2022-08-28T07:35:37.998Z,2.50
2022-08-28T07:38:04.685Z,2.60
2022-08-28T07:40:31.458Z,2.78
2022-08-28T07:43:16.825Z,2.90
2022-08-28T07:45:44.526Z,2.53
2022-08-28T07:48:59.058Z,2.40
2022-08-28T07:51:32.118Z,3.45
2022-08-28T07:53:59.179Z,2.47
2022-08-28T07:56:29.637Z,2.67
2022-08-28T07:59:02.584Z,2.50
2022-08-28T08:01:30.632Z,2.50
2022-08-28T08:04:01.511Z,2.42
2022-08-28T08:06:47.786Z,2.25
2022-08-28T08:09:17.715Z,2.70
2022-08-28T08:11:44.848Z,2.37
2022-08-28T08:14:12.399Z,2.78
2022-08-28T08:16:42.015Z,2.62
2022-08-28T08:19:13.939Z,2.33
2022-08-28T08:22:30.063Z,2.70
2022-08-28T08:25:16.758Z,2.47
2022-08-28T08:27:43.395Z,2.28
2022-08-28T08:30:11.716Z,2.50
2022-08-28T08:32:40.001Z,2.60
2022-08-28T08:35:06.908Z,2.42
2022-08-28T08:37:33.587Z,2.30
2022-08-28T08:40:10.817Z,2.75
2022-08-28T08:42:38.554Z,3.03
2022-08-28T08:45:11.258Z,2.40
2022-08-28T08:47:51.590Z,2.78
2022-08-28T08:50:24.342Z,2.70
2022-08-28T08:53:09.887Z,2.70
2022-08-28T08:59:35.024Z,2.70
2022-08-28T09:02:10.547Z,2.85
2022-08-28T09:04:41.680Z,2.40
2022-08-28T09:07:16.615Z,2.72
2022-08-28T09:10:01.394Z,2.92
2022-08-28T09:12:39.660Z,2.85
2022-08-28T09:15:40.703Z,3.03
2022-08-28T09:18:22.407Z,3.05
2022-08-28T09:20:54.389Z,2.47
2022-08-28T09:23:25.776Z,2.50
2022-08-28T09:26:01.807Z,3.10
2022-08-28T09:28:36.986Z,2.97
2022-08-28T09:31:38.739Z,3.03
2022-08-28T09:34:39.006Z,3.85
2022-08-28T09:37:08.455Z,3.03
2022-08-28T09:39:38.472Z,2.72
2022-08-28T09:42:32.617Z,3.03
2022-08-28T09:45:13.584Z,3.10
2022-08-28T09:47:52.445Z,3.12
2022-08-28T09:50:21.360Z,2.75
2022-08-28T09:52:48.478Z,2.70
2022-08-28T09:55:44.192Z,3.30
2022-08-28T09:58:10.897Z,3.15
2022-08-28T10:00:48.413Z,3.22
2022-08-28T10:03:22.131Z,3.25
2022-08-28T10:06:29.613Z,3.03
2022-08-28T10:09:11.696Z,3.20
2022-08-28T10:11:38.273Z,3.20
2022-08-28T10:14:20.750Z,2.95
2022-08-28T10:23:56.765Z,3.20
2022-08-28T10:26:26.066Z,3.15
2022-08-28T10:29:38.121Z,3.05
2022-08-28T10:32:13.731Z,3.15
2022-08-28T10:34:51.970Z,3.08
2022-08-28T10:37:55.525Z,3.22
2022-08-28T10:40:36.594Z,3.05
2022-08-28T10:43:26.632Z,2.90
2022-08-28T10:45:54.920Z,2.90
2022-08-28T10:48:30.304Z,2.62
2022-08-28T10:51:02.922Z,3.15
2022-08-28T10:53:39.721Z,2.72
2022-08-28T10:59:24.173Z,2.40
2022-08-28T11:01:52.421Z,2.90
2022-08-28T11:04:25.449Z,2.78
2022-08-28T11:06:57.489Z,2.40
2022-08-28T11:09:44.142Z,2.80
2022-08-28T11:12:16.479Z,2.55
2022-08-28T11:14:55.361Z,2.70
2022-08-28T11:17:21.878Z,2.80
2022-08-28T11:20:13.821Z,2.85
2022-08-28T11:22:53.037Z,2.80
2022-08-28T11:25:32.315Z,2.75
2022-08-28T11:32:47.202Z,2.75
2022-08-28T11:35:32.656Z,2.30
2022-08-28T11:37:59.355Z,2.80
2022-08-28T11:40:32.035Z,3.05
2022-08-28T11:43:16.968Z,3.00
2022-08-28T11:45:46.580Z,2.70
2022-08-28T11:48:49.001Z,2.80
2022-08-28T11:51:18.434Z,2.58
2022-08-28T11:54:13.430Z,2.55
2022-08-28T11:57:07.913Z,2.78
2022-08-28T11:59:49.425Z,2.60
2022-08-28T12:02:40.927Z,2.78
2022-08-28T12:05:57.542Z,2.27
2022-08-28T12:09:10.721Z,2.30
2022-08-28T12:11:40.098Z,2.72
2022-08-28T12:14:11.826Z,3.10
2022-08-28T12:17:03.685Z,2.72
2022-08-28T12:19:30.227Z,2.00
2022-08-28T12:22:17.623Z,2.15
2022-08-28T12:25:08.858Z,2.30
2022-08-28T12:27:39.591Z,2.25
2022-08-28T12:30:06.531Z,2.40
2022-08-28T12:32:56.046Z,2.00
2022-08-28T12:35:29.843Z,2.28
2022-08-28T12:38:43.773Z,2.40
2022-08-28T12:41:38.585Z,2.25
2022-08-28T12:44:08.976Z,2.30
2022-08-28T12:46:40.912Z,2.10
2022-08-28T12:49:31.415Z,2.58
2022-08-28T12:52:23.672Z,2.50
2022-08-28T12:54:51.916Z,2.62
2022-08-28T12:57:44.800Z,2.40
2022-08-28T13:00:15.859Z,2.50
2022-08-28T13:02:45.510Z,2.37
2022-08-28T13:05:29.086Z,2.60
2022-08-28T13:07:57.183Z,2.40
2022-08-28T13:10:41.012Z,2.50
2022-08-28T13:13:40.204Z,2.50
2022-08-28T13:16:23.272Z,2.87
2022-08-28T13:19:12.450Z,2.40
2022-08-28T13:21:48.190Z,2.40
2022-08-28T13:24:20.602Z,2.47
2022-08-28T13:26:49.778Z,2.78
2022-08-28T13:29:20.122Z,2.80
2022-08-28T13:32:02.301Z,2.80
2022-08-28T13:37:00.196Z,2.87
2022-08-28T13:39:29.697Z,2.95
2022-08-28T13:42:06.261Z,2.80
2022-08-28T13:44:40.966Z,2.62
2022-08-28T13:47:32.154Z,2.40
2022-08-28T13:50:46.676Z,2.72
2022-08-28T13:53:15.733Z,2.97
2022-08-28T13:55:42.567Z,2.87
2022-08-28T13:58:09.724Z,2.30
2022-08-28T14:00:41.597Z,2.83
2022-08-28T14:03:26.759Z,2.50
2022-08-28T14:06:14.201Z,3.10
2022-08-28T14:08:43.456Z,2.80
2022-08-28T14:11:12.832Z,2.53
2022-08-28T14:13:40.795Z,3.08
2022-08-28T14:16:16.818Z,2.95
2022-08-28T14:18:43.522Z,2.60
2022-08-28T14:21:53.187Z,2.70
2022-08-28T14:25:07.205Z,3.20
2022-08-28T14:27:33.862Z,2.95
2022-08-28T14:30:01.570Z,3.00
2022-08-28T14:32:28.456Z,2.87
2022-08-28T14:34:55.089Z,2.50
2022-08-28T14:37:22.904Z,2.60
2022-08-28T14:39:50.567Z,2.90
2022-08-28T14:42:27.002Z,2.80
2022-08-28T14:44:54.141Z,2.80
2022-08-28T14:47:21.145Z,2.72
2022-08-28T14:49:48.177Z,3.20
2022-08-28T14:52:15.147Z,2.50
2022-08-28T14:54:41.888Z,3.00
2022-08-28T14:57:39.339Z,2.72
2022-08-28T15:00:34.434Z,3.00
2022-08-28T15:03:01.069Z,2.83
2022-08-28T15:05:27.694Z,2.70
2022-08-28T15:07:54.396Z,2.90
2022-08-28T15:10:21.189Z,2.67
2022-08-28T15:12:48.293Z,3.10
2022-08-28T15:15:14.952Z,2.90
2022-08-28T15:17:41.564Z,2.80
2022-08-28T15:20:08.841Z,2.92
2022-08-28T15:22:36.495Z,2.70
2022-08-28T15:25:03.947Z,2.80
2022-08-28T15:27:30.539Z,2.78
2022-08-28T15:29:57.190Z,2.80
2022-08-28T15:32:24.418Z,2.85
2022-08-28T15:34:51.901Z,2.83
2022-08-28T15:37:18.550Z,3.00
2022-08-28T15:40:03.532Z,2.70
2022-08-28T15:42:30.235Z,2.95
2022-08-28T15:44:57.091Z,3.28
2022-08-28T15:47:24.973Z,2.42
2022-08-28T15:49:56.233Z,2.80
2022-08-28T15:54:51.264Z,2.65
2022-08-28T15:57:18.802Z,3.00
2022-08-28T15:59:50.052Z,2.80
2022-08-28T16:02:22.599Z,2.53
2022-08-28T16:04:50.249Z,2.70
2022-08-28T16:07:18.446Z,2.87
2022-08-28T16:09:45.353Z,3.10
2022-08-28T16:12:12.162Z,3.10
2022-08-28T16:17:39.379Z,2.50
2022-08-28T16:20:07.055Z,3.40
2022-08-28T16:22:39.734Z,2.67
2022-08-28T16:25:09.237Z,2.60
2022-08-28T16:27:36.300Z,2.25
2022-08-28T16:30:03.847Z,2.90
2022-08-28T16:32:30.667Z,2.85
2022-08-28T16:37:43.774Z,2.80
2022-08-28T16:40:11.585Z,2.55
2022-08-28T16:42:41.499Z,2.90
2022-08-28T16:53:56.796Z,2.53
2022-08-28T16:56:24.510Z,2.67
2022-08-28T16:58:53.256Z,2.97
2022-08-28T17:01:24.083Z,3.20
2022-08-28T17:03:54.729Z,2.97
2022-08-28T17:06:24.936Z,3.58
2022-08-28T17:08:56.873Z,3.70
2022-08-28T17:13:51.272Z,3.08
2022-08-28T17:16:19.154Z,3.50
2022-08-28T17:23:59.633Z,2.53
2022-08-28T17:26:28.020Z,2.40
2022-08-28T17:48:05.017Z,2.53
2022-08-28T17:50:31.657Z,3.10
2022-08-28T18:17:52.125Z,2.08
2022-08-28T18:20:19.315Z,1.90
2022-08-28T18:22:46.610Z,2.10
2022-08-28T18:25:34.097Z,1.80
2022-08-28T18:33:16.484Z,2.20
2022-08-28T18:41:08.637Z,1.80
2022-08-28T18:43:40.191Z,1.95
2022-08-28T18:46:11.543Z,2.03
2022-08-28T18:48:38.391Z,2.00
2022-08-28T18:51:12.210Z,1.70
2022-08-28T18:53:39.270Z,2.17
2022-08-28T18:56:12.638Z,1.90
2022-08-28T18:58:41.628Z,2.15
2022-08-28T19:01:09.707Z,2.20
2022-08-28T19:03:36.994Z,2.30
2022-08-28T19:06:04.391Z,2.20
2022-08-28T19:08:31.560Z,1.85
2022-08-28T19:10:58.256Z,2.17
2022-08-28T19:13:24.908Z,2.20
2022-08-28T19:15:53.033Z,2.15
2022-08-28T19:18:30.122Z,2.20
2022-08-28T19:21:05.071Z,2.05
2022-08-28T19:23:32.157Z,2.15
2022-08-28T19:25:58.914Z,2.53
2022-08-28T19:28:25.781Z,1.83
2022-08-28T19:30:52.699Z,2.10
2022-08-28T19:33:19.411Z,2.03
2022-08-28T19:35:46.086Z,2.20
2022-08-28T19:38:13.132Z,1.77
2022-08-28T19:40:40.030Z,2.10
2022-08-28T19:43:06.810Z,2.35
2022-08-28T19:45:37.477Z,2.10
2022-08-28T19:48:04.184Z,2.28
2022-08-28T19:50:40.028Z,2.25
2022-08-28T19:53:07.185Z,2.30
2022-08-28T19:55:33.944Z,2.28
2022-08-28T19:58:04.072Z,2.28
2022-08-28T20:00:33.027Z,2.33
2022-08-28T20:03:00.145Z,2.65
2022-08-28T20:05:27.059Z,2.40
2022-08-28T20:07:53.939Z,2.40
2022-08-28T20:10:21.470Z,2.60
2022-08-28T20:12:48.881Z,3.00
2022-08-28T20:15:17.424Z,2.83
2022-08-28T20:17:50.045Z,2.80
2022-08-28T20:20:23.779Z,2.90
2022-08-28T20:22:54.147Z,3.20
2022-08-28T20:25:21.849Z,2.80
2022-08-28T20:27:48.549Z,3.30
2022-08-28T20:32:50.474Z,3.00
2022-08-28T20:35:17.535Z,2.72
2022-08-28T20:37:48.804Z,2.80
2022-08-28T20:40:18.197Z,3.37
2022-08-28T20:42:46.118Z,3.08
2022-08-28T20:45:37.609Z,3.10
2022-08-28T20:48:04.415Z,3.15
2022-08-28T21:14:28.152Z,3.30
2022-08-28T21:16:54.912Z,3.22
2022-08-28T21:19:21.712Z,3.50
2022-08-28T21:21:48.407Z,3.53
2022-08-28T21:24:16.873Z,3.70
2022-08-28T21:26:45.617Z,3.90
2022-08-28T21:29:14.187Z,3.55
